EKBI Airport Information

Runway Information
Runway 09 Length 10172 ft width 148 ft
Elevation 215 ft Threshold 492 ft Heading 87
Runway 27 Length 10172 ft Width 148 ft
Elevation 244 ft Threshold 492 ft Heading 267
Airport Frequencies
Type APP Name APP Frequency 127.575 MHZ
Type ATIS Name ATIS Frequency 118.775 MHZ
Type MISC Name CARGO HAND Frequency 122.075 MHZ
Type MISC Name HANDLING Frequency 130.85 MHZ
Type OPS Name ARPT OFFIC Frequency 131.5 MHZ
Type TWR Name TWR Frequency 119 MHZ
Airport Navaids
Type NDB Name Billund Frequency 341 KHZ
Airport Weather Information & NOTAM
ADDS - METARS form results

(2319 UTC 21 February 2018)
 
METAR text: EKBI 212250Z AUTO 26005KT 9999NDV BKN015/// BKN062/// BKN090/// 00/M01 Q1027
Conditions at: EKBI (BILLUND AIRPORT , DK) observed 2250 UTC 21 February 2018
Temperature: 0.0°C (32°F)
Dewpoint: -1.0°C (30°F) [RH = 93%]
Pressure (altimeter): 30.32 inches Hg (1027.0 mb)
Winds: from the W (260 degrees) at 6 MPH (5 knots; 2.6 m/s)
Visibility: missing
Ceiling: 1500 feet AGL
Clouds: broken clouds at 1500 feet AGL
broken clouds at 6200 feet AGL
broken clouds at 9000 feet AGL
Weather: no significant weather observed at this time

METAR text: EKBI 212220Z AUTO 26006KT 9999NDV FEW029/// OVC064/// 01/M01 Q1027
Conditions at: EKBI (BILLUND AIRPORT , DK) observed 2220 UTC 21 February 2018
Temperature: 1.0°C (34°F)
Dewpoint: -1.0°C (30°F) [RH = 86%]
Pressure (altimeter): 30.32 inches Hg (1027.0 mb)
Winds: from the W (260 degrees) at 7 MPH (6 knots; 3.1 m/s)
Visibility: missing
Ceiling: 6400 feet AGL
Clouds: few clouds at 2900 feet AGL
overcast cloud deck at 6400 feet AGL
Weather: no significant weather observed at this time